Time;durP1;ratioP1;P1;durP2;ratioP2;P2;SDS_P1;SDS_P2;PMS_P1;PMS_P2;Temp;Humidity;BMP_temperature;BMP_pressure;BME280_temperature;BME280_humidity;BME280_pressure;Samples;Min_cycle;Max_cycle;Signal;HPM_P1;HPM_P2
2023/01/07 00:01:14;;;;;;;4.00;0.63;;;;;;;11.42;100.00;100109.66;5012529;28;20126;-52
2023/01/07 00:03:40;;;;;;;5.05;1.02;;;;;;;11.54;100.00;100093.94;5019271;28;20025;-52
2023/01/07 00:06:17;;;;;;;2.95;1.08;;;;;;;11.65;100.00;100084.50;5015055;28;20037;-52
2023/01/07 00:08:45;;;;;;;6.18;0.60;;;;;;;11.66;100.00;100078.97;5016740;28;20038;-59
2023/01/07 00:11:19;;;;;;;6.10;0.60;;;;;;;11.51;100.00;100068.59;5014512;28;20587;-61
2023/01/07 00:13:45;;;;;;;1.85;0.65;;;;;;;11.55;100.00;100071.66;5018351;28;20036;-50
2023/01/07 00:16:13;;;;;;;1.05;0.30;;;;;;;11.37;100.00;100066.97;5016231;28;20065;-51
2023/01/07 00:18:39;;;;;;;3.45;0.70;;;;;;;11.48;100.00;100060.22;5010751;28;20049;-53
2023/01/07 00:21:07;;;;;;;2.28;0.68;;;;;;;11.48;100.00;100061.03;5013125;28;20517;-53
2023/01/07 00:23:35;;;;;;;2.53;0.70;;;;;;;11.51;100.00;100052.69;5015593;28;20017;-52
2023/01/07 00:26:06;;;;;;;4.63;1.17;;;;;;;11.61;100.00;100043.44;5015276;28;20416;-54
2023/01/07 00:28:33;;;;;;;3.15;0.52;;;;;;;11.66;100.00;100033.03;5024088;28;20323;-59
2023/01/07 00:31:03;;;;;;;3.60;0.73;;;;;;;11.48;100.00;100034.47;5023330;28;20025;-53
2023/01/07 00:33:28;;;;;;;2.00;1.10;;;;;;;11.51;100.00;100034.09;5018284;28;20017;-52
2023/01/07 00:36:07;;;;;;;1.33;0.40;;;;;;;11.52;100.00;100024.28;5013803;28;20100;-66
2023/01/07 00:38:33;;;;;;;3.85;0.90;;;;;;;11.53;100.00;100020.59;5019516;28;20593;-55
2023/01/07 00:40:59;;;;;;;5.10;0.65;;;;;;;11.54;100.00;100020.41;5016369;28;20055;-63
2023/01/07 00:43:25;;;;;;;1.45;0.57;;;;;;;11.51;100.00;100006.69;5014069;28;20046;-56
2023/01/07 00:45:50;;;;;;;1.50;0.77;;;;;;;11.50;100.00;100005.09;5018695;28;20014;-55
2023/01/07 00:48:17;;;;;;;5.07;0.65;;;;;;;11.50;100.00;100003.25;5021676;28;20117;-54
2023/01/07 00:50:44;;;;;;;8.50;1.75;;;;;;;11.59;100.00;99979.94;5025117;28;20029;-53
2023/01/07 00:53:11;;;;;;;11.55;1.92;;;;;;;11.65;100.00;99984.41;5024090;28;20043;-62
2023/01/07 00:55:37;;;;;;;6.03;0.63;;;;;;;11.60;100.00;99964.81;5015570;28;20040;-56
2023/01/07 00:58:02;;;;;;;6.63;0.55;;;;;;;11.55;100.00;99978.72;5013638;28;20084;-53
2023/01/07 01:00:28;;;;;;;1.85;0.85;;;;;;;11.49;100.00;99969.75;5019856;28;20054;-60
2023/01/07 01:02:53;;;;;;;5.22;0.88;;;;;;;11.45;100.00;99949.16;5014289;28;20447;-56
2023/01/07 01:05:20;;;;;;;3.38;0.95;;;;;;;11.42;100.00;99954.88;5018494;28;20025;-58
2023/01/07 01:07:45;;;;;;;0.75;0.30;;;;;;;11.39;100.00;99948.16;5017873;28;20117;-57
2023/01/07 01:10:13;;;;;;;3.65;0.47;;;;;;;11.43;100.00;99933.41;5019160;28;20386;-57
2023/01/07 01:12:40;;;;;;;1.48;0.55;;;;;;;11.56;100.00;99928.09;5017240;28;20044;-57
2023/01/07 01:15:10;;;;;;;6.55;0.40;;;;;;;11.51;100.00;99908.47;5018060;28;20037;-58
2023/01/07 01:17:35;;;;;;;8.13;3.03;;;;;;;11.57;100.00;99900.50;5018804;28;20080;-52
2023/01/07 01:20:01;;;;;;;5.60;0.57;;;;;;;11.63;100.00;99893.53;5018928;28;20025;-55
2023/01/07 01:22:27;;;;;;;5.47;1.05;;;;;;;11.57;100.00;99891.72;5018426;28;20033;-64
2023/01/07 01:24:52;;;;;;;12.98;0.90;;;;;;;11.64;100.00;99886.34;5016651;28;20197;-54
2023/01/07 01:27:18;;;;;;;4.18;0.60;;;;;;;11.61;100.00;99876.97;5016404;28;20079;-53
2023/01/07 01:29:44;;;;;;;9.50;2.60;;;;;;;11.63;100.00;99863.50;5016656;28;20499;-54
2023/01/07 01:32:10;;;;;;;1.92;0.40;;;;;;;11.65;100.00;99880.03;5021554;28;20060;-65
2023/01/07 01:34:35;;;;;;;2.92;0.93;;;;;;;11.56;100.00;99867.00;5020617;28;20109;-54
2023/01/07 01:37:00;;;;;;;3.28;1.17;;;;;;;11.45;100.00;99866.84;5021212;28;20022;-53
2023/01/07 01:39:26;;;;;;;6.18;0.80;;;;;;;11.39;100.00;99857.91;5021704;28;20060;-57
2023/01/07 01:41:51;;;;;;;6.43;1.40;;;;;;;11.34;100.00;99860.38;5013675;28;20037;-65
2023/01/07 01:44:33;;;;;;;1.20;0.30;;;;;;;11.54;100.00;99854.97;5026502;28;20021;-50
2023/01/07 01:47:00;;;;;;;5.13;0.77;;;;;;;11.54;100.00;99853.13;5021971;28;20479;-61
2023/01/07 01:49:33;;;;;;;5.65;2.17;;;;;;;11.45;100.00;99854.38;5016005;28;20033;-57
2023/01/07 01:52:10;;;;;;;1.20;0.55;;;;;;;11.54;100.00;99858.44;5021408;28;20058;-55
2023/01/07 01:54:37;;;;;;;4.90;0.20;;;;;;;11.40;100.00;99853.41;5021394;28;20030;-50
2023/01/07 01:57:05;;;;;;;2.90;0.70;;;;;;;11.39;100.00;99831.34;5023815;28;20041;-54
2023/01/07 01:59:33;;;;;;;2.00;0.13;;;;;;;11.67;100.00;99862.03;5023238;28;20026;-54
2023/01/07 02:01:59;;;;;;;5.03;0.50;;;;;;;11.69;100.00;99834.22;5027034;28;20029;-69
2023/01/07 02:04:27;;;;;;;1.60;0.30;;;;;;;11.56;100.00;99845.78;5029553;28;20069;-55
2023/01/07 02:06:55;;;;;;;33.35;2.00;;;;;;;11.44;100.00;99836.03;5029275;28;20158;-53
2023/01/07 02:09:20;;;;;;;3.75;0.50;;;;;;;11.34;100.00;99826.69;5026192;28;20025;-64
2023/01/07 02:11:58;;;;;;;4.25;1.10;;;;;;;11.42;100.00;99846.06;5022711;28;20037;-58
2023/01/07 02:14:54;;;;;;;5.90;1.42;;;;;;;11.51;100.00;99834.97;5026515;28;20029;-55
2023/01/07 02:17:44;;;;;;;5.85;0.45;;;;;;;11.52;100.00;99828.63;5033032;28;20036;-54
2023/01/07 02:20:37;;;;;;;1.45;0.38;;;;;;;11.47;100.00;99830.31;5013250;28;20061;-57
2023/01/07 02:23:14;;;;;;;3.80;0.70;;;;;;;11.52;100.00;99809.25;5024833;28;20079;-64
2023/01/07 02:26:27;;;;;;;7.07;0.30;;;;;;;11.76;100.00;99820.94;5022520;28;20061;-63
2023/01/07 02:29:01;;;;;;;3.90;1.23;;;;;;;11.63;100.00;99810.41;5026241;28;20395;-55
2023/01/07 02:32:24;;;;;;;2.88;0.88;;;;;;;11.39;100.00;99814.63;5021638;28;20580;-58
2023/01/07 02:34:58;;;;;;;6.82;1.58;;;;;;;11.38;100.00;99824.41;5030562;28;20485;-61
2023/01/07 02:37:26;;;;;;;6.55;0.85;;;;;;;11.50;100.00;99806.78;5033365;28;20511;-57
2023/01/07 02:40:20;;;;;;;4.03;0.50;;;;;;;11.55;100.00;99820.22;5029429;28;20038;-58
2023/01/07 02:42:51;;;;;;;8.35;1.20;;;;;;;11.43;100.00;99808.66;5029099;28;20040;-58
2023/01/07 02:45:28;;;;;;;1.30;0.32;;;;;;;11.37;100.00;99812.16;5034795;28;20087;-54
2023/01/07 02:47:57;;;;;;;4.38;1.05;;;;;;;11.37;100.00;99806.06;5027750;28;20188;-62
2023/01/07 02:50:22;;;;;;;6.35;0.50;;;;;;;11.40;100.00;99810.94;5031238;28;20587;-66
2023/01/07 02:52:47;;;;;;;7.32;0.88;;;;;;;11.50;100.00;99798.00;5027614;28;20117;-62
2023/01/07 02:55:15;;;;;;;6.55;0.65;;;;;;;11.57;100.00;99794.28;5030421;28;20021;-65
2023/01/07 02:57:46;;;;;;;11.30;0.57;;;;;;;11.47;100.00;99785.16;5021275;28;20037;-55
2023/01/07 03:00:20;;;;;;;2.65;0.20;;;;;;;11.43;100.00;99787.41;5026900;28;20025;-56
2023/01/07 03:03:14;;;;;;;4.50;0.45;;;;;;;11.41;100.00;99789.50;5025269;28;20041;-58
2023/01/07 03:05:40;;;;;;;3.13;0.45;;;;;;;11.39;100.00;99783.59;5029032;28;20081;-59
2023/01/07 03:08:30;;;;;;;3.63;0.98;;;;;;;11.40;100.00;99787.03;5031608;28;20071;-61
2023/01/07 03:11:03;;;;;;;3.45;0.80;;;;;;;11.44;100.00;99789.06;5022412;28;20030;-54
2023/01/07 03:13:46;;;;;;;10.25;1.42;;;;;;;11.32;100.00;99788.91;5026725;28;20640;-57
2023/01/07 03:16:15;;;;;;;3.67;0.75;;;;;;;11.31;100.00;99775.88;5029395;28;20383;-56
2023/01/07 03:18:58;;;;;;;4.78;1.15;;;;;;;11.27;100.00;99772.00;5027970;28;20036;-52
2023/01/07 03:21:24;;;;;;;3.15;0.85;;;;;;;11.50;100.00;99763.50;5021818;28;20095;-54
2023/01/07 03:23:54;;;;;;;0.98;0.50;;;;;;;11.65;100.00;99750.72;5035758;28;20023;-53
2023/01/07 03:26:24;;;;;;;10.95;0.95;;;;;;;11.38;100.00;99744.78;5031612;28;20387;-53
2023/01/07 03:28:51;;;;;;;3.00;1.08;;;;;;;11.35;100.00;99737.25;5034161;28;20033;-53
2023/01/07 03:31:18;;;;;;;2.33;1.25;;;;;;;11.49;100.00;99746.75;5029578;28;20096;-54
2023/01/07 03:34:02;;;;;;;2.15;0.57;;;;;;;11.45;100.00;99732.28;5036056;28;20118;-53
2023/01/07 03:36:35;;;;;;;5.82;0.60;;;;;;;11.25;100.00;99731.59;5029784;28;20623;-59
2023/01/07 03:39:01;;;;;;;8.60;1.33;;;;;;;11.12;100.00;99725.34;5020874;28;20026;-56
2023/01/07 03:44:15;;;;;;;1.60;0.30;;;;;;;11.24;100.00;99730.78;5031194;28;20033;-51
2023/01/07 03:46:41;;;;;;;4.65;0.90;;;;;;;11.30;100.00;99716.66;5026415;28;20083;-56
2023/01/07 03:49:06;;;;;;;1.00;0.30;;;;;;;11.33;100.00;99712.75;5029869;28;20099;-54
2023/01/07 03:51:31;;;;;;;4.38;0.93;;;;;;;11.22;100.00;99716.09;5028858;28;20042;-55
2023/01/07 03:53:56;;;;;;;6.20;0.77;;;;;;;11.11;100.00;99704.34;5023008;28;20046;-62
2023/01/07 03:56:22;;;;;;;4.82;0.47;;;;;;;11.14;100.00;99698.59;5033397;28;20065;-62
2023/01/07 03:58:47;;;;;;;3.50;0.50;;;;;;;11.25;100.00;99705.06;5025628;28;20033;-58
2023/01/07 04:01:12;;;;;;;5.45;1.42;;;;;;;11.10;100.00;99682.31;5026289;28;20547;-63
2023/01/07 04:03:38;;;;;;;3.97;0.55;;;;;;;11.06;100.00;99689.06;5022451;28;20037;-63
2023/01/07 04:06:03;;;;;;;8.25;1.90;;;;;;;11.15;100.00;99684.28;5034316;28;20031;-51
2023/01/07 04:08:29;;;;;;;1.70;0.38;;;;;;;11.22;100.00;99673.66;5027357;28;20070;-54
2023/01/07 04:10:54;;;;;;;3.53;0.90;;;;;;;11.21;100.00;99669.38;5028578;28;20104;-56
2023/01/07 04:13:19;;;;;;;2.20;0.55;;;;;;;11.20;100.00;99668.53;5021363;28;20045;-58
2023/01/07 04:15:44;;;;;;;2.90;0.75;;;;;;;11.18;100.00;99659.19;5028232;28;20071;-67
2023/01/07 04:18:10;;;;;;;2.72;1.08;;;;;;;11.25;100.00;99652.78;5022017;28;20113;-56
2023/01/07 04:20:35;;;;;;;4.70;1.45;;;;;;;11.21;100.00;99642.84;5021482;28;20048;-57
2023/01/07 04:23:00;;;;;;;0.63;0.25;;;;;;;11.22;100.00;99625.88;5028420;28;20021;-55
2023/01/07 04:25:26;;;;;;;0.70;0.43;;;;;;;11.28;100.00;99630.31;5032041;28;20531;-57
2023/01/07 04:27:51;;;;;;;4.28;1.13;;;;;;;11.31;100.00;99643.19;5023406;28;20025;-58
2023/01/07 04:30:16;;;;;;;5.13;1.13;;;;;;;11.23;100.00;99632.81;5029269;28;20112;-56
2023/01/07 04:32:42;;;;;;;3.78;0.40;;;;;;;11.11;100.00;99624.75;5025980;28;20177;-62
2023/01/07 04:35:08;;;;;;;4.10;0.60;;;;;;;11.08;100.00;99618.03;5028797;28;20108;-52
2023/01/07 04:37:33;;;;;;;1.38;0.47;;;;;;;10.98;100.00;99614.22;5017990;28;20072;-61
2023/01/07 04:39:58;;;;;;;2.92;0.88;;;;;;;11.01;100.00;99601.34;5026909;28;20029;-51
2023/01/07 04:42:24;;;;;;;1.27;0.90;;;;;;;11.10;100.00;99584.16;5024607;28;20037;-53
2023/01/07 04:44:49;;;;;;;6.75;0.25;;;;;;;11.11;100.00;99590.25;5030568;28;20330;-64
2023/01/07 04:47:14;;;;;;;1.88;0.77;;;;;;;11.05;100.00;99583.19;5027490;28;20445;-58
2023/01/07 04:49:40;;;;;;;10.73;2.22;;;;;;;10.95;100.00;99581.00;5020735;28;20482;-56
2023/01/07 04:52:05;;;;;;;4.28;1.40;;;;;;;11.09;100.00;99582.50;5030685;28;20120;-55
2023/01/07 04:54:30;;;;;;;1.55;0.55;;;;;;;11.18;100.00;99582.22;5024784;28;20017;-51
2023/01/07 04:56:56;;;;;;;3.95;0.10;;;;;;;10.95;100.00;99565.09;5026417;28;20116;-69
2023/01/07 04:59:21;;;;;;;1.77;0.73;;;;;;;10.92;100.00;99562.88;5031098;28;20033;-54
2023/01/07 05:01:47;;;;;;;2.58;0.30;;;;;;;10.88;100.00;99574.91;5023370;28;20463;-53
2023/01/07 05:04:12;;;;;;;4.18;0.65;;;;;;;11.04;100.00;99562.97;5027244;28;20438;-53
2023/01/07 05:06:37;;;;;;;8.75;2.65;;;;;;;10.93;100.00;99561.03;5035690;28;20033;-67
2023/01/07 05:09:03;;;;;;;3.67;0.95;;;;;;;10.94;100.00;99558.13;5021524;28;20084;-55
2023/01/07 05:11:28;;;;;;;5.95;0.68;;;;;;;10.98;100.00;99556.69;5029410;28;20021;-60
2023/01/07 05:13:53;;;;;;;4.05;0.40;;;;;;;11.00;100.00;99549.34;5024536;28;20026;-55
2023/01/07 05:16:19;;;;;;;10.85;0.75;;;;;;;11.04;100.00;99547.06;5024020;28;20021;-55
2023/01/07 05:18:44;;;;;;;5.53;0.68;;;;;;;10.98;100.00;99532.81;5029018;28;20041;-56
2023/01/07 05:21:10;;;;;;;4.88;0.40;;;;;;;10.87;100.00;99537.00;5021680;28;20485;-67
2023/01/07 05:23:35;;;;;;;1.80;0.32;;;;;;;10.98;100.00;99526.72;5030381;28;20033;-55
2023/01/07 05:26:01;;;;;;;2.88;0.52;;;;;;;10.82;100.00;99528.06;5018178;28;20021;-59
2023/01/07 05:28:26;;;;;;;6.60;0.60;;;;;;;10.83;100.00;99521.72;5017887;28;20321;-53
2023/01/07 05:30:52;;;;;;;3.72;0.75;;;;;;;10.82;100.00;99517.44;5027487;28;20025;-54
2023/01/07 05:33:17;;;;;;;2.72;0.20;;;;;;;10.77;100.00;99509.34;5025826;28;20096;-55
2023/01/07 05:35:42;;;;;;;2.85;0.32;;;;;;;11.00;100.00;99506.09;5033880;28;20108;-51
2023/01/07 05:38:08;;;;;;;3.20;1.00;;;;;;;10.78;100.00;99489.72;5029065;28;20030;-64
2023/01/07 05:40:33;;;;;;;1.20;0.40;;;;;;;10.76;100.00;99478.53;5016802;28;20022;-58
2023/01/07 05:42:59;;;;;;;3.00;0.45;;;;;;;10.78;100.00;99495.03;5019901;28;20056;-53
2023/01/07 05:45:24;;;;;;;2.10;0.55;;;;;;;10.68;100.00;99483.06;5021100;28;20816;-68
2023/01/07 05:47:50;;;;;;;2.90;0.43;;;;;;;10.61;100.00;99477.03;5020563;28;20029;-62
2023/01/07 05:50:15;;;;;;;4.50;0.88;;;;;;;10.51;100.00;99471.38;5021376;28;20467;-56
2023/01/07 05:52:40;;;;;;;6.85;0.52;;;;;;;10.54;100.00;99472.78;5020908;28;20041;-51
2023/01/07 05:55:07;;;;;;;2.45;0.28;;;;;;;10.41;100.00;99479.00;5020514;28;20052;-54
2023/01/07 05:57:32;;;;;;;7.80;1.95;;;;;;;10.36;100.00;99484.13;5021823;28;20033;-68
2023/01/07 05:59:58;;;;;;;4.50;1.33;;;;;;;10.37;100.00;99464.53;5023663;28;20025;-51
2023/01/07 06:02:24;;;;;;;4.72;0.28;;;;;;;10.35;100.00;99462.13;5022634;28;20049;-63
2023/01/07 06:04:50;;;;;;;4.85;1.00;;;;;;;10.25;100.00;99451.16;5029707;28;20225;-68
2023/01/07 06:07:15;;;;;;;4.65;1.08;;;;;;;10.36;100.00;99461.09;5026293;28;20494;-57
2023/01/07 06:09:40;;;;;;;2.30;0.45;;;;;;;10.31;100.00;99460.09;5025785;28;20179;-64
2023/01/07 06:12:06;;;;;;;7.95;0.95;;;;;;;10.25;100.00;99465.19;5027611;28;20030;-64
2023/01/07 06:14:31;;;;;;;5.93;0.38;;;;;;;10.19;100.00;99459.94;5027471;28;20025;-58
2023/01/07 06:16:56;;;;;;;2.75;0.20;;;;;;;10.19;100.00;99455.44;5021906;28;20029;-55
2023/01/07 06:19:22;;;;;;;5.75;0.80;;;;;;;10.17;100.00;99446.91;5030107;28;20037;-55
2023/01/07 06:21:48;;;;;;;5.32;0.60;;;;;;;10.24;100.00;99445.03;5029555;28;20030;-58
2023/01/07 06:24:14;;;;;;;5.93;0.52;;;;;;;10.30;100.00;99442.56;5035598;28;20052;-69
2023/01/07 06:26:39;;;;;;;2.17;0.35;;;;;;;10.28;100.00;99432.22;5027479;28;20061;-63
2023/01/07 06:29:04;;;;;;;6.40;0.28;;;;;;;10.11;100.00;99425.75;5035703;28;20032;-63
2023/01/07 06:31:30;;;;;;;7.35;1.33;;;;;;;10.08;100.00;99421.69;5032761;28;20467;-57
2023/01/07 06:33:55;;;;;;;3.88;0.65;;;;;;;10.05;100.00;99422.94;5028149;28;20029;-61
2023/01/07 06:36:20;;;;;;;1.63;0.40;;;;;;;10.05;100.00;99428.22;5025867;28;20032;-60
2023/01/07 06:38:46;;;;;;;5.32;2.33;;;;;;;10.05;100.00;99414.19;5028049;28;20064;-61
2023/01/07 06:41:11;;;;;;;7.80;2.58;;;;;;;9.95;100.00;99432.38;5030339;28;20060;-62
2023/01/07 06:43:36;;;;;;;3.40;0.60;;;;;;;9.91;100.00;99409.97;5027774;28;20140;-69
2023/01/07 06:46:02;;;;;;;0.93;0.30;;;;;;;10.04;100.00;99394.84;5022655;28;20030;-66
2023/01/07 06:48:27;;;;;;;4.57;0.30;;;;;;;10.06;100.00;99399.91;5026455;28;20031;-57
2023/01/07 06:50:52;;;;;;;3.60;1.23;;;;;;;9.88;100.00;99399.81;5030345;28;20613;-66
2023/01/07 06:53:18;;;;;;;1.92;0.15;;;;;;;9.73;100.00;99400.94;5030071;28;20025;-58
2023/01/07 06:55:50;;;;;;;2.10;0.17;;;;;;;9.83;100.00;99398.63;5024804;28;20104;-62
2023/01/07 06:58:16;;;;;;;4.75;0.43;;;;;;;9.90;100.00;99397.78;5037467;28;20067;-60
2023/01/07 07:00:41;;;;;;;1.70;0.30;;;;;;;9.92;100.00;99372.72;5022601;28;20064;-61
2023/01/07 07:03:06;;;;;;;6.18;0.70;;;;;;;9.94;100.00;99377.78;5030896;28;20123;-56
2023/01/07 07:05:33;;;;;;;3.53;0.98;;;;;;;10.14;100.00;99375.81;5027720;28;20459;-56
2023/01/07 07:07:59;;;;;;;6.00;2.05;;;;;;;10.05;100.00;99364.66;5034379;28;20546;-56
2023/01/07 07:10:25;;;;;;;2.55;0.85;;;;;;;10.07;100.00;99345.09;5027356;28;20117;-63
2023/01/07 07:12:50;;;;;;;4.45;0.50;;;;;;;10.07;100.00;99350.41;5028526;28;20109;-60
2023/01/07 07:15:16;;;;;;;5.47;1.00;;;;;;;10.03;100.00;99350.03;5028297;28;20033;-65
2023/01/07 07:17:41;;;;;;;3.33;0.30;;;;;;;9.90;100.00;99347.47;5029822;28;20033;-64
2023/01/07 07:20:07;;;;;;;5.25;0.43;;;;;;;10.12;100.00;99337.31;5025528;28;20104;-61
2023/01/07 07:22:32;;;;;;;5.50;1.23;;;;;;;10.17;100.00;99340.97;5030024;28;20120;-63
2023/01/07 07:24:58;;;;;;;6.75;1.45;;;;;;;10.04;100.00;99330.44;5022908;28;20434;-63
2023/01/07 07:27:23;;;;;;;4.90;0.93;;;;;;;9.96;100.00;99323.56;5028883;28;20524;-54
2023/01/07 07:29:48;;;;;;;2.05;0.68;;;;;;;9.90;100.00;99323.66;5031599;28;20069;-58
2023/01/07 07:32:14;;;;;;;3.03;0.75;;;;;;;9.91;100.00;99325.25;5037540;28;20515;-52
2023/01/07 07:34:39;;;;;;;5.47;1.38;;;;;;;9.99;100.00;99319.69;5024441;28;20083;-63
2023/01/07 07:37:04;;;;;;;3.47;0.30;;;;;;;9.88;100.00;99328.34;5028742;28;20128;-58
2023/01/07 07:39:30;;;;;;;2.92;0.40;;;;;;;9.88;100.00;99309.81;5022344;28;20438;-59
2023/01/07 07:41:55;;;;;;;2.35;0.20;;;;;;;9.81;100.00;99323.91;5035241;28;20033;-61
2023/01/07 07:44:20;;;;;;;5.05;0.22;;;;;;;9.75;100.00;99297.47;5027822;28;20121;-60
2023/01/07 07:46:46;;;;;;;6.80;1.60;;;;;;;9.66;100.00;99294.28;5019479;28;20135;-62
2023/01/07 07:49:11;;;;;;;5.10;0.75;;;;;;;9.63;100.00;99313.25;5033934;28;20672;-64
2023/01/07 07:51:37;;;;;;;2.75;0.75;;;;;;;9.57;100.00;99303.47;5037642;28;20399;-58
2023/01/07 07:54:02;;;;;;;2.70;0.52;;;;;;;9.53;100.00;99291.72;5030516;28;20034;-55
2023/01/07 07:56:28;;;;;;;8.77;0.63;;;;;;;9.43;100.00;99308.06;5033892;28;20033;-54
2023/01/07 07:58:53;;;;;;;7.45;0.32;;;;;;;9.36;100.00;99302.78;5027379;28;20120;-58
2023/01/07 08:01:18;;;;;;;1.75;0.10;;;;;;;9.34;100.00;99302.19;5020446;28;20079;-57
2023/01/07 08:03:44;;;;;;;0.70;0.68;;;;;;;9.35;100.00;99305.66;5021622;28;20086;-57
2023/01/07 08:06:11;;;;;;;1.67;0.30;;;;;;;9.33;100.00;99313.00;5019750;28;20034;-62
2023/01/07 08:08:36;;;;;;;4.45;0.77;;;;;;;9.40;100.00;99308.47;5020521;28;20498;-60
2023/01/07 08:11:02;;;;;;;2.10;0.30;;;;;;;9.49;100.00;99303.75;5021768;28;20026;-59
2023/01/07 08:13:29;;;;;;;5.65;1.05;;;;;;;9.63;100.00;99307.94;5017862;28;20445;-59
2023/01/07 08:15:54;;;;;;;4.18;1.50;;;;;;;9.53;100.00;99292.53;5018441;28;20030;-57
2023/01/07 08:18:20;;;;;;;5.18;0.47;;;;;;;9.62;100.00;99285.13;5023960;28;20025;-58
2023/01/07 08:20:45;;;;;;;1.08;0.40;;;;;;;9.56;100.00;99280.72;5016621;28;20107;-60
2023/01/07 08:23:11;;;;;;;1.08;0.10;;;;;;;9.53;100.00;99284.59;5026613;28;20025;-63
2023/01/07 08:25:36;;;;;;;5.43;1.55;;;;;;;9.38;100.00;99284.06;5024857;28;20040;-62
2023/01/07 08:28:02;;;;;;;1.95;0.88;;;;;;;9.25;100.00;99278.84;5030392;28;20475;-54
2023/01/07 08:30:29;;;;;;;6.15;0.40;;;;;;;9.20;100.00;99279.47;5023523;28;20025;-59
2023/01/07 08:32:55;;;;;;;3.22;0.52;;;;;;;9.23;100.00;99286.97;5031555;28;20032;-60
2023/01/07 08:35:21;;;;;;;1.00;0.30;;;;;;;9.20;100.00;99287.41;5028471;28;20029;-57
2023/01/07 08:37:46;;;;;;;2.78;0.38;;;;;;;9.32;100.00;99280.44;5025874;28;20045;-57
2023/01/07 08:40:12;;;;;;;5.38;0.40;;;;;;;9.35;100.00;99280.00;5025677;28;20391;-58
2023/01/07 08:42:38;;;;;;;4.07;0.22;;;;;;;9.20;100.00;99276.84;5030388;28;20540;-63
2023/01/07 08:45:05;;;;;;;4.85;0.70;;;;;;;9.24;100.00;99283.34;5023477;28;20364;-58
2023/01/07 08:47:31;;;;;;;2.58;1.17;;;;;;;9.20;100.00;99279.47;5021811;28;20048;-58
2023/01/07 08:49:59;;;;;;;1.77;0.75;;;;;;;9.07;100.00;99279.53;5031160;28;20116;-60
2023/01/07 08:52:24;;;;;;;1.27;0.47;;;;;;;9.08;100.00;99283.81;5030536;28;20050;-57
2023/01/07 08:54:50;;;;;;;2.67;0.40;;;;;;;9.13;100.00;99276.06;5028765;28;20040;-58
2023/01/07 08:57:17;;;;;;;5.18;0.35;;;;;;;9.20;100.00;99276.03;5024911;28;20056;-62
2023/01/07 08:59:42;;;;;;;2.85;0.20;;;;;;;9.30;100.00;99279.84;5024902;28;20067;-66
2023/01/07 09:02:12;;;;;;;4.00;0.43;;;;;;;9.52;100.00;99276.84;5034317;28;20049;-57
2023/01/07 09:04:38;;;;;;;4.65;1.13;;;;;;;9.56;100.00;99270.13;5030935;28;20069;-54
2023/01/07 09:07:03;;;;;;;3.05;0.73;;;;;;;9.47;100.00;99266.09;5032270;28;20060;-56
2023/01/07 09:09:28;;;;;;;1.50;0.57;;;;;;;9.42;100.00;99257.97;5022595;28;20034;-54
2023/01/07 09:11:54;;;;;;;1.67;0.13;;;;;;;9.43;100.00;99254.34;5022320;28;20029;-53
2023/01/07 09:14:19;;;;;;;1.17;0.13;;;;;;;9.49;100.00;99251.63;5029909;28;20036;-58
2023/01/07 09:16:44;;;;;;;6.38;0.57;;;;;;;9.57;100.00;99242.63;5026776;28;20067;-56
2023/01/07 09:19:10;;;;;;;3.70;0.50;;;;;;;9.65;100.00;99238.91;5025357;28;20040;-53
2023/01/07 09:21:35;;;;;;;7.35;0.63;;;;;;;9.59;100.00;99235.28;5021793;28;20077;-59
2023/01/07 09:24:02;;;;;;;3.90;1.10;;;;;;;9.57;100.00;99253.22;5025423;28;20068;-54
2023/01/07 09:26:30;;;;;;;1.88;0.63;;;;;;;9.53;100.00;99250.19;5028082;28;20021;-63
2023/01/07 09:28:55;;;;;;;3.20;0.20;;;;;;;9.59;100.00;99230.78;5027262;28;20466;-57
2023/01/07 09:31:21;;;;;;;5.18;1.58;;;;;;;9.56;100.00;99239.16;5023098;28;20040;-54
2023/01/07 09:33:46;;;;;;;4.72;0.40;;;;;;;9.43;100.00;99233.16;5026632;28;20041;-53
2023/01/07 09:36:12;;;;;;;3.30;1.38;;;;;;;9.46;100.00;99233.53;5021027;28;20382;-58
2023/01/07 09:38:37;;;;;;;2.03;0.32;;;;;;;9.55;100.00;99219.03;5025574;28;20474;-59
2023/01/07 09:41:03;;;;;;;2.53;0.20;;;;;;;9.61;100.00;99217.38;5018213;28;20042;-64
2023/01/07 09:43:39;;;;;;;0.68;0.40;;;;;;;9.68;100.00;99223.41;5026659;28;20037;-54
2023/01/07 09:46:11;;;;;;;3.00;0.55;;;;;;;9.41;100.00;99224.63;5026165;28;20120;-66
2023/01/07 09:48:46;;;;;;;;;;;;;;;9.37;100.00;99222.41;5033773;28;20040;-56
2023/01/07 09:51:26;;;;;;;2.28;0.70;;;;;;;9.37;100.00;99227.72;5035149;28;19920;-55
2023/01/07 09:53:56;;;;;;;5.33;1.07;;;;;;;9.47;100.00;99224.56;5033831;28;20045;-58
2023/01/07 09:56:33;;;;;;;5.93;0.50;;;;;;;9.68;100.00;99219.94;5034018;28;20017;-63
2023/01/07 09:59:00;;;;;;;2.00;0.10;;;;;;;9.76;100.00;99201.97;5031860;28;20025;-67
2023/01/07 10:01:32;;;;;;;5.65;0.93;;;;;;;9.69;100.00;99211.00;5027497;28;20052;-56
2023/01/07 10:04:15;;;;;;;;;;;;;;;9.78;100.00;99207.03;5030422;28;20029;-54
2023/01/07 10:07:00;;;;;;;2.85;0.30;;;;;;;9.76;100.00;99214.41;5033322;28;19927;-57
2023/01/07 10:09:31;;;;;;;6.28;1.40;;;;;;;9.69;100.00;99213.63;5029934;28;20379;-55
2023/01/07 10:11:59;;;;;;;;;;;;;;;9.88;100.00;99212.66;5017823;28;20489;-55
2023/01/07 10:14:57;;;;;;;5.60;0.57;;;;;;;9.94;100.00;99200.38;5027265;28;19917;-59
2023/01/07 10:17:46;;;;;;;3.00;0.65;;;;;;;9.72;100.00;99202.63;5024085;28;20041;-56
2023/01/07 10:20:32;;;;;;;10.05;2.17;;;;;;;9.70;100.00;99209.94;5022591;28;20469;-56
2023/01/07 10:23:10;;;;;;;5.03;0.88;;;;;;;9.76;100.00;99209.91;5024407;28;20432;-54
2023/01/07 10:25:47;;;;;;;9.27;0.73;;;;;;;9.68;100.00;99194.31;5021267;28;20474;-64
2023/01/07 10:28:24;;;;;;;0.47;0.45;;;;;;;9.76;100.00;99203.81;5028710;28;20029;-56
2023/01/07 10:30:52;;;;;;;3.72;0.20;;;;;;;9.73;100.00;99197.13;5027691;28;20036;-57
2023/01/07 10:33:30;;;;;;;8.88;0.65;;;;;;;9.71;100.00;99195.72;5027225;28;20017;-58
2023/01/07 10:36:21;;;;;;;2.28;0.22;;;;;;;9.64;100.00;99197.59;5026826;28;20036;-59
2023/01/07 10:39:12;;;;;;;3.28;0.73;;;;;;;9.67;100.00;99183.94;5027546;28;20045;-61
2023/01/07 10:42:08;;;;;;;3.30;0.95;;;;;;;9.61;100.00;99181.13;5022155;28;20372;-58
2023/01/07 10:45:04;;;;;;;1.55;0.20;;;;;;;9.78;100.00;99180.56;5026618;28;20084;-60
2023/01/07 10:47:45;;;;;;;4.13;0.28;;;;;;;9.88;100.00;99180.88;5026624;28;20045;-58
2023/01/07 10:50:29;;;;;;;5.22;0.57;;;;;;;9.83;100.00;99170.97;5025430;28;20064;-61
2023/01/07 10:53:08;;;;;;;2.65;0.50;;;;;;;9.75;100.00;99168.56;5026148;28;20041;-60
2023/01/07 10:55:40;;;;;;;6.22;0.70;;;;;;;9.68;100.00;99172.31;5021807;28;20604;-55
2023/01/07 10:58:10;;;;;;;4.43;0.82;;;;;;;9.68;100.00;99167.00;5017518;28;20036;-61
2023/01/07 11:00:37;;;;;;;2.15;0.38;;;;;;;9.71;100.00;99167.41;5025541;28;20046;-60
2023/01/07 11:03:03;;;;;;;2.40;0.95;;;;;;;9.73;100.00;99165.34;5025959;28;20033;-60
2023/01/07 11:05:36;;;;;;;3.45;0.30;;;;;;;9.79;100.00;99159.19;5024845;28;20025;-56
2023/01/07 11:08:03;;;;;;;6.07;1.92;;;;;;;9.79;100.00;99167.13;5021807;28;20034;-60
2023/01/07 11:10:35;;;;;;;2.90;0.55;;;;;;;9.66;100.00;99154.00;5020869;28;20037;-60
2023/01/07 11:13:11;;;;;;;7.05;1.30;;;;;;;9.63;100.00;99158.91;5026110;28;20042;-60
2023/01/07 11:15:47;;;;;;;1.52;0.57;;;;;;;9.59;100.00;99161.19;5025572;28;20033;-58
2023/01/07 11:18:39;;;;;;;6.65;1.13;;;;;;;9.59;100.00;99153.25;5029137;28;20439;-57
2023/01/07 11:21:04;;;;;;;2.63;1.55;;;;;;;9.63;100.00;99154.44;5029665;28;20049;-57
2023/01/07 11:23:38;;;;;;;5.43;0.63;;;;;;;9.66;100.00;99148.72;5026029;28;20051;-59
2023/01/07 11:26:07;;;;;;;7.55;2.63;;;;;;;9.69;100.00;99153.56;5027403;28;20021;-59
2023/01/07 11:28:33;;;;;;;2.38;1.27;;;;;;;9.64;100.00;99142.03;5024380;28;20049;-54
2023/01/07 11:31:00;;;;;;;6.45;1.88;;;;;;;9.53;100.00;99135.59;5028016;28;20071;-58
2023/01/07 11:33:54;;;;;;;1.45;0.45;;;;;;;9.88;100.00;99140.34;5027217;28;20044;-58
2023/01/07 11:36:43;;;;;;;4.85;1.50;;;;;;;10.05;100.00;99126.31;5029526;28;20091;-57
2023/01/07 11:39:21;;;;;;;11.52;1.67;;;;;;;10.00;100.00;99112.13;5023763;28;20030;-53
2023/01/07 11:41:54;;;;;;;10.15;1.10;;;;;;;10.00;100.00;99114.78;5025314;28;20017;-53